sensor_id;sensor_type;location;lat;lon;timestamp;P1;durP1;ratioP1;P2;durP2;ratioP2
51618;SDS011;38518;53.164;5.430;2023-05-14T00:01:58;19.55;;;17.45;;
51618;SDS011;38518;53.164;5.430;2023-05-14T00:04:23;24.38;;;17.50;;
51618;SDS011;38518;53.164;5.430;2023-05-14T00:06:50;19.85;;;17.63;;
51618;SDS011;38518;53.164;5.430;2023-05-14T00:09:15;19.92;;;17.83;;
51618;SDS011;38518;53.164;5.430;2023-05-14T00:11:42;20.52;;;17.25;;
51618;SDS011;38518;53.164;5.430;2023-05-14T00:14:07;23.95;;;19.15;;
51618;SDS011;38518;53.164;5.430;2023-05-14T00:16:33;22.45;;;18.17;;
51618;SDS011;38518;53.164;5.430;2023-05-14T00:18:59;22.27;;;19.13;;
51618;SDS011;38518;53.164;5.430;2023-05-14T00:21:25;21.98;;;18.27;;
51618;SDS011;38518;53.164;5.430;2023-05-14T00:23:50;20.55;;;18.40;;
51618;SDS011;38518;53.164;5.430;2023-05-14T00:26:16;20.02;;;17.90;;
51618;SDS011;38518;53.164;5.430;2023-05-14T00:28:42;23.50;;;17.60;;
51618;SDS011;38518;53.164;5.430;2023-05-14T00:31:08;23.05;;;17.77;;
51618;SDS011;38518;53.164;5.430;2023-05-14T00:33:34;22.55;;;17.63;;
51618;SDS011;38518;53.164;5.430;2023-05-14T00:35:59;20.92;;;16.63;;
51618;SDS011;38518;53.164;5.430;2023-05-14T00:38:25;18.77;;;15.75;;
51618;SDS011;38518;53.164;5.430;2023-05-14T00:40:52;20.67;;;18.08;;
51618;SDS011;38518;53.164;5.430;2023-05-14T00:43:19;23.88;;;18.35;;
51618;SDS011;38518;53.164;5.430;2023-05-14T00:45:49;26.75;;;21.55;;
51618;SDS011;38518;53.164;5.430;2023-05-14T00:48:16;28.23;;;22.40;;
51618;SDS011;38518;53.164;5.430;2023-05-14T00:50:42;24.85;;;20.95;;
51618;SDS011;38518;53.164;5.430;2023-05-14T00:53:08;27.88;;;20.13;;
51618;SDS011;38518;53.164;5.430;2023-05-14T00:55:39;21.85;;;17.35;;
51618;SDS011;38518;53.164;5.430;2023-05-14T00:58:08;17.25;;;13.02;;
51618;SDS011;38518;53.164;5.430;2023-05-14T01:00:35;18.60;;;14.77;;
51618;SDS011;38518;53.164;5.430;2023-05-14T01:03:02;20.40;;;16.08;;
51618;SDS011;38518;53.164;5.430;2023-05-14T01:05:29;18.00;;;16.15;;
51618;SDS011;38518;53.164;5.430;2023-05-14T01:08:05;23.10;;;16.80;;
51618;SDS011;38518;53.164;5.430;2023-05-14T01:10:38;21.35;;;17.17;;
51618;SDS011;38518;53.164;5.430;2023-05-14T01:13:14;19.27;;;16.93;;
51618;SDS011;38518;53.164;5.430;2023-05-14T01:15:48;24.08;;;17.25;;
51618;SDS011;38518;53.164;5.430;2023-05-14T01:18:15;19.40;;;14.88;;
51618;SDS011;38518;53.164;5.430;2023-05-14T01:20:44;25.98;;;19.48;;
51618;SDS011;38518;53.164;5.430;2023-05-14T01:23:10;24.75;;;19.42;;
51618;SDS011;38518;53.164;5.430;2023-05-14T01:25:36;25.70;;;19.27;;
51618;SDS011;38518;53.164;5.430;2023-05-14T01:28:05;28.63;;;21.65;;
51618;SDS011;38518;53.164;5.430;2023-05-14T01:30:39;30.33;;;22.25;;
51618;SDS011;38518;53.164;5.430;2023-05-14T01:33:13;26.25;;;22.35;;
51618;SDS011;38518;53.164;5.430;2023-05-14T01:35:42;27.25;;;22.00;;
51618;SDS011;38518;53.164;5.430;2023-05-14T01:38:10;29.10;;;21.70;;
51618;SDS011;38518;53.164;5.430;2023-05-14T01:40:38;27.25;;;18.33;;
51618;SDS011;38518;53.164;5.430;2023-05-14T01:43:04;30.48;;;22.48;;
51618;SDS011;38518;53.164;5.430;2023-05-14T01:45:33;27.67;;;23.30;;
51618;SDS011;38518;53.164;5.430;2023-05-14T01:48:00;30.15;;;22.77;;
51618;SDS011;38518;53.164;5.430;2023-05-14T01:50:25;26.17;;;17.17;;
51618;SDS011;38518;53.164;5.430;2023-05-14T01:52:51;24.58;;;18.38;;
51618;SDS011;38518;53.164;5.430;2023-05-14T01:55:20;20.77;;;18.20;;
51618;SDS011;38518;53.164;5.430;2023-05-14T01:57:48;23.83;;;18.27;;
51618;SDS011;38518;53.164;5.430;2023-05-14T02:00:14;19.67;;;16.25;;
51618;SDS011;38518;53.164;5.430;2023-05-14T02:02:40;25.98;;;17.95;;
51618;SDS011;38518;53.164;5.430;2023-05-14T02:05:06;27.10;;;19.42;;
51618;SDS011;38518;53.164;5.430;2023-05-14T02:07:33;21.45;;;17.30;;
51618;SDS011;38518;53.164;5.430;2023-05-14T02:09:58;23.77;;;18.40;;
51618;SDS011;38518;53.164;5.430;2023-05-14T02:12:24;22.75;;;16.67;;
51618;SDS011;38518;53.164;5.430;2023-05-14T02:14:50;22.27;;;16.38;;
51618;SDS011;38518;53.164;5.430;2023-05-14T02:17:16;23.30;;;17.55;;
51618;SDS011;38518;53.164;5.430;2023-05-14T02:19:42;25.13;;;16.77;;
51618;SDS011;38518;53.164;5.430;2023-05-14T02:22:08;21.33;;;16.95;;
51618;SDS011;38518;53.164;5.430;2023-05-14T02:24:34;19.95;;;15.80;;
51618;SDS011;38518;53.164;5.430;2023-05-14T02:27:00;21.10;;;15.52;;
51618;SDS011;38518;53.164;5.430;2023-05-14T02:29:26;23.55;;;16.05;;
51618;SDS011;38518;53.164;5.430;2023-05-14T02:31:52;19.20;;;15.05;;
51618;SDS011;38518;53.164;5.430;2023-05-14T02:34:17;22.27;;;15.60;;
51618;SDS011;38518;53.164;5.430;2023-05-14T02:36:43;18.52;;;12.98;;
51618;SDS011;38518;53.164;5.430;2023-05-14T02:39:09;18.90;;;13.60;;
51618;SDS011;38518;53.164;5.430;2023-05-14T02:41:35;17.05;;;13.13;;
51618;SDS011;38518;53.164;5.430;2023-05-14T02:44:01;20.73;;;13.40;;
51618;SDS011;38518;53.164;5.430;2023-05-14T02:46:26;21.15;;;14.77;;
51618;SDS011;38518;53.164;5.430;2023-05-14T02:48:52;17.30;;;13.23;;
51618;SDS011;38518;53.164;5.430;2023-05-14T02:51:21;19.20;;;12.38;;
51618;SDS011;38518;53.164;5.430;2023-05-14T02:53:47;17.85;;;11.73;;
51618;SDS011;38518;53.164;5.430;2023-05-14T02:56:13;19.30;;;12.02;;
51618;SDS011;38518;53.164;5.430;2023-05-14T02:58:39;19.52;;;12.07;;
51618;SDS011;38518;53.164;5.430;2023-05-14T03:01:05;19.85;;;12.68;;
51618;SDS011;38518;53.164;5.430;2023-05-14T03:03:31;18.40;;;11.88;;
51618;SDS011;38518;53.164;5.430;2023-05-14T03:05:57;21.63;;;12.60;;
51618;SDS011;38518;53.164;5.430;2023-05-14T03:08:23;18.27;;;12.10;;
51618;SDS011;38518;53.164;5.430;2023-05-14T03:10:49;19.30;;;12.82;;
51618;SDS011;38518;53.164;5.430;2023-05-14T03:13:15;20.38;;;12.77;;
51618;SDS011;38518;53.164;5.430;2023-05-14T03:15:43;20.73;;;13.75;;
51618;SDS011;38518;53.164;5.430;2023-05-14T03:18:11;20.95;;;13.82;;
51618;SDS011;38518;53.164;5.430;2023-05-14T03:20:37;19.90;;;12.60;;
51618;SDS011;38518;53.164;5.430;2023-05-14T03:23:03;18.33;;;11.95;;
51618;SDS011;38518;53.164;5.430;2023-05-14T03:25:28;22.50;;;12.93;;
51618;SDS011;38518;53.164;5.430;2023-05-14T03:27:54;19.55;;;12.88;;
51618;SDS011;38518;53.164;5.430;2023-05-14T03:30:20;19.98;;;10.63;;
51618;SDS011;38518;53.164;5.430;2023-05-14T03:32:46;19.92;;;10.48;;
51618;SDS011;38518;53.164;5.430;2023-05-14T03:35:12;20.52;;;11.60;;
51618;SDS011;38518;53.164;5.430;2023-05-14T03:37:38;21.35;;;12.20;;
51618;SDS011;38518;53.164;5.430;2023-05-14T03:40:04;27.30;;;13.57;;
51618;SDS011;38518;53.164;5.430;2023-05-14T03:42:30;17.70;;;12.43;;
51618;SDS011;38518;53.164;5.430;2023-05-14T03:44:56;19.83;;;13.15;;
51618;SDS011;38518;53.164;5.430;2023-05-14T03:47:21;25.13;;;12.90;;
51618;SDS011;38518;53.164;5.430;2023-05-14T03:49:47;18.63;;;11.80;;
51618;SDS011;38518;53.164;5.430;2023-05-14T03:52:13;20.55;;;12.68;;
51618;SDS011;38518;53.164;5.430;2023-05-14T03:54:39;23.00;;;13.25;;
51618;SDS011;38518;53.164;5.430;2023-05-14T03:57:05;23.90;;;13.70;;
51618;SDS011;38518;53.164;5.430;2023-05-14T03:59:31;25.80;;;13.13;;
51618;SDS011;38518;53.164;5.430;2023-05-14T04:01:57;19.40;;;13.27;;
51618;SDS011;38518;53.164;5.430;2023-05-14T04:04:22;20.58;;;12.15;;
51618;SDS011;38518;53.164;5.430;2023-05-14T04:06:48;21.25;;;13.10;;
51618;SDS011;38518;53.164;5.430;2023-05-14T04:09:14;17.48;;;11.82;;
51618;SDS011;38518;53.164;5.430;2023-05-14T04:11:40;21.23;;;12.27;;
51618;SDS011;38518;53.164;5.430;2023-05-14T04:14:06;22.85;;;12.68;;
51618;SDS011;38518;53.164;5.430;2023-05-14T04:16:32;16.90;;;12.75;;
51618;SDS011;38518;53.164;5.430;2023-05-14T04:19:00;23.33;;;12.63;;
51618;SDS011;38518;53.164;5.430;2023-05-14T04:21:27;18.33;;;12.15;;
51618;SDS011;38518;53.164;5.430;2023-05-14T04:23:53;21.08;;;12.68;;
51618;SDS011;38518;53.164;5.430;2023-05-14T04:26:19;21.95;;;12.40;;
51618;SDS011;38518;53.164;5.430;2023-05-14T04:28:45;19.15;;;12.07;;
51618;SDS011;38518;53.164;5.430;2023-05-14T04:31:11;24.58;;;13.18;;
51618;SDS011;38518;53.164;5.430;2023-05-14T04:33:37;20.10;;;10.60;;
51618;SDS011;38518;53.164;5.430;2023-05-14T04:36:04;19.02;;;11.52;;
51618;SDS011;38518;53.164;5.430;2023-05-14T04:38:30;21.45;;;11.68;;
51618;SDS011;38518;53.164;5.430;2023-05-14T04:40:56;17.92;;;10.15;;
51618;SDS011;38518;53.164;5.430;2023-05-14T04:43:22;16.00;;;10.00;;
51618;SDS011;38518;53.164;5.430;2023-05-14T04:45:48;15.75;;;10.30;;
51618;SDS011;38518;53.164;5.430;2023-05-14T04:48:15;16.30;;;9.43;;
51618;SDS011;38518;53.164;5.430;2023-05-14T04:50:41;19.20;;;10.38;;
51618;SDS011;38518;53.164;5.430;2023-05-14T04:53:08;21.00;;;10.52;;
51618;SDS011;38518;53.164;5.430;2023-05-14T04:55:35;18.20;;;9.77;;
51618;SDS011;38518;53.164;5.430;2023-05-14T04:58:01;16.52;;;9.43;;
51618;SDS011;38518;53.164;5.430;2023-05-14T05:00:27;16.13;;;8.02;;
51618;SDS011;38518;53.164;5.430;2023-05-14T05:02:53;17.88;;;9.35;;
51618;SDS011;38518;53.164;5.430;2023-05-14T05:05:19;16.77;;;8.43;;
51618;SDS011;38518;53.164;5.430;2023-05-14T05:07:45;17.33;;;7.57;;
51618;SDS011;38518;53.164;5.430;2023-05-14T05:10:11;13.52;;;7.53;;
51618;SDS011;38518;53.164;5.430;2023-05-14T05:12:37;17.92;;;7.22;;
51618;SDS011;38518;53.164;5.430;2023-05-14T05:15:03;15.30;;;7.50;;
51618;SDS011;38518;53.164;5.430;2023-05-14T05:17:29;13.73;;;7.35;;
51618;SDS011;38518;53.164;5.430;2023-05-14T05:19:55;15.35;;;6.70;;
51618;SDS011;38518;53.164;5.430;2023-05-14T05:22:21;14.45;;;6.13;;
51618;SDS011;38518;53.164;5.430;2023-05-14T05:24:48;11.80;;;5.80;;
51618;SDS011;38518;53.164;5.430;2023-05-14T05:27:13;12.85;;;5.68;;
51618;SDS011;38518;53.164;5.430;2023-05-14T05:29:39;11.98;;;6.07;;
51618;SDS011;38518;53.164;5.430;2023-05-14T05:32:05;16.77;;;6.50;;
51618;SDS011;38518;53.164;5.430;2023-05-14T05:34:32;11.98;;;5.50;;
51618;SDS011;38518;53.164;5.430;2023-05-14T05:36:58;12.23;;;6.18;;
51618;SDS011;38518;53.164;5.430;2023-05-14T05:39:24;16.35;;;7.93;;
51618;SDS011;38518;53.164;5.430;2023-05-14T05:41:50;14.95;;;6.47;;
51618;SDS011;38518;53.164;5.430;2023-05-14T05:44:15;14.30;;;6.65;;
51618;SDS011;38518;53.164;5.430;2023-05-14T05:46:41;14.52;;;6.55;;
51618;SDS011;38518;53.164;5.430;2023-05-14T05:49:07;12.02;;;5.63;;
51618;SDS011;38518;53.164;5.430;2023-05-14T05:51:33;15.68;;;6.57;;
51618;SDS011;38518;53.164;5.430;2023-05-14T05:53:58;16.48;;;7.57;;
51618;SDS011;38518;53.164;5.430;2023-05-14T05:56:24;14.15;;;7.30;;
51618;SDS011;38518;53.164;5.430;2023-05-14T05:58:50;12.63;;;7.07;;
51618;SDS011;38518;53.164;5.430;2023-05-14T06:01:16;15.00;;;6.55;;
51618;SDS011;38518;53.164;5.430;2023-05-14T06:03:41;13.05;;;7.07;;
51618;SDS011;38518;53.164;5.430;2023-05-14T06:06:07;12.88;;;6.70;;
51618;SDS011;38518;53.164;5.430;2023-05-14T06:08:33;16.17;;;6.30;;
51618;SDS011;38518;53.164;5.430;2023-05-14T06:10:59;13.13;;;6.60;;
51618;SDS011;38518;53.164;5.430;2023-05-14T06:13:25;16.00;;;6.97;;
51618;SDS011;38518;53.164;5.430;2023-05-14T06:15:51;15.43;;;7.10;;
51618;SDS011;38518;53.164;5.430;2023-05-14T06:18:16;14.18;;;7.07;;
51618;SDS011;38518;53.164;5.430;2023-05-14T06:20:42;15.70;;;7.97;;
51618;SDS011;38518;53.164;5.430;2023-05-14T06:23:09;12.73;;;6.82;;
51618;SDS011;38518;53.164;5.430;2023-05-14T06:25:36;12.07;;;7.38;;
51618;SDS011;38518;53.164;5.430;2023-05-14T06:28:02;14.13;;;7.13;;
51618;SDS011;38518;53.164;5.430;2023-05-14T06:30:27;10.73;;;6.88;;
51618;SDS011;38518;53.164;5.430;2023-05-14T06:32:53;16.52;;;6.35;;
51618;SDS011;38518;53.164;5.430;2023-05-14T06:35:19;13.55;;;6.72;;
51618;SDS011;38518;53.164;5.430;2023-05-14T06:37:55;16.88;;;6.80;;
51618;SDS011;38518;53.164;5.430;2023-05-14T06:40:20;16.98;;;6.80;;
51618;SDS011;38518;53.164;5.430;2023-05-14T06:42:49;14.98;;;6.40;;
51618;SDS011;38518;53.164;5.430;2023-05-14T06:45:14;13.27;;;5.95;;
51618;SDS011;38518;53.164;5.430;2023-05-14T06:47:40;11.57;;;5.63;;
51618;SDS011;38518;53.164;5.430;2023-05-14T06:50:06;12.02;;;5.93;;
51618;SDS011;38518;53.164;5.430;2023-05-14T06:52:32;14.95;;;7.25;;
51618;SDS011;38518;53.164;5.430;2023-05-14T06:54:58;12.75;;;6.30;;
51618;SDS011;38518;53.164;5.430;2023-05-14T06:57:24;16.02;;;7.10;;
51618;SDS011;38518;53.164;5.430;2023-05-14T06:59:50;15.13;;;6.50;;
51618;SDS011;38518;53.164;5.430;2023-05-14T07:02:16;12.75;;;6.57;;
51618;SDS011;38518;53.164;5.430;2023-05-14T07:04:44;12.50;;;5.80;;
51618;SDS011;38518;53.164;5.430;2023-05-14T07:07:10;14.10;;;5.75;;
51618;SDS011;38518;53.164;5.430;2023-05-14T07:09:39;13.68;;;6.05;;
51618;SDS011;38518;53.164;5.430;2023-05-14T07:12:06;13.50;;;5.50;;
51618;SDS011;38518;53.164;5.430;2023-05-14T07:14:37;12.63;;;4.97;;
51618;SDS011;38518;53.164;5.430;2023-05-14T07:17:06;12.93;;;5.57;;
51618;SDS011;38518;53.164;5.430;2023-05-14T07:19:32;11.85;;;5.85;;
51618;SDS011;38518;53.164;5.430;2023-05-14T07:22:03;12.82;;;5.68;;
51618;SDS011;38518;53.164;5.430;2023-05-14T07:24:29;9.75;;;5.07;;
51618;SDS011;38518;53.164;5.430;2023-05-14T07:26:55;12.05;;;5.07;;
51618;SDS011;38518;53.164;5.430;2023-05-14T07:29:26;14.15;;;4.70;;
51618;SDS011;38518;53.164;5.430;2023-05-14T07:31:54;12.75;;;5.05;;
51618;SDS011;38518;53.164;5.430;2023-05-14T07:34:45;12.02;;;5.10;;
51618;SDS011;38518;53.164;5.430;2023-05-14T07:37:17;15.15;;;5.63;;
51618;SDS011;38518;53.164;5.430;2023-05-14T07:39:43;8.20;;;4.47;;
51618;SDS011;38518;53.164;5.430;2023-05-14T07:42:08;10.38;;;4.07;;
51618;SDS011;38518;53.164;5.430;2023-05-14T07:44:34;13.93;;;5.15;;
51618;SDS011;38518;53.164;5.430;2023-05-14T07:47:00;15.35;;;5.55;;
51618;SDS011;38518;53.164;5.430;2023-05-14T07:49:26;12.68;;;4.85;;
51618;SDS011;38518;53.164;5.430;2023-05-14T07:51:54;10.50;;;4.75;;
51618;SDS011;38518;53.164;5.430;2023-05-14T07:54:22;12.38;;;5.53;;
51618;SDS011;38518;53.164;5.430;2023-05-14T07:56:48;10.52;;;4.90;;
51618;SDS011;38518;53.164;5.430;2023-05-14T07:59:14;9.70;;;4.63;;
51618;SDS011;38518;53.164;5.430;2023-05-14T08:01:40;12.57;;;5.03;;
51618;SDS011;38518;53.164;5.430;2023-05-14T08:04:06;12.00;;;4.70;;
51618;SDS011;38518;53.164;5.430;2023-05-14T08:06:32;12.18;;;5.00;;
51618;SDS011;38518;53.164;5.430;2023-05-14T08:08:58;11.65;;;5.00;;
51618;SDS011;38518;53.164;5.430;2023-05-14T08:11:24;8.90;;;4.53;;
51618;SDS011;38518;53.164;5.430;2023-05-14T08:13:50;10.32;;;4.55;;
51618;SDS011;38518;53.164;5.430;2023-05-14T08:16:16;11.93;;;5.18;;
51618;SDS011;38518;53.164;5.430;2023-05-14T08:18:41;9.48;;;5.05;;
51618;SDS011;38518;53.164;5.430;2023-05-14T08:21:07;11.18;;;4.90;;
51618;SDS011;38518;53.164;5.430;2023-05-14T08:23:33;11.98;;;4.90;;
51618;SDS011;38518;53.164;5.430;2023-05-14T08:25:59;10.02;;;4.78;;
51618;SDS011;38518;53.164;5.430;2023-05-14T08:28:25;13.73;;;4.95;;
51618;SDS011;38518;53.164;5.430;2023-05-14T08:30:51;15.07;;;5.60;;
51618;SDS011;38518;53.164;5.430;2023-05-14T08:33:17;9.82;;;4.97;;
51618;SDS011;38518;53.164;5.430;2023-05-14T08:35:42;12.82;;;5.53;;
51618;SDS011;38518;53.164;5.430;2023-05-14T08:38:08;17.55;;;5.63;;
51618;SDS011;38518;53.164;5.430;2023-05-14T08:40:38;11.57;;;5.25;;
51618;SDS011;38518;53.164;5.430;2023-05-14T08:43:06;11.13;;;4.97;;
51618;SDS011;38518;53.164;5.430;2023-05-14T08:45:37;9.55;;;4.90;;
51618;SDS011;38518;53.164;5.430;2023-05-14T08:48:04;11.32;;;4.85;;
51618;SDS011;38518;53.164;5.430;2023-05-14T08:50:33;10.75;;;4.63;;
51618;SDS011;38518;53.164;5.430;2023-05-14T08:53:00;9.82;;;4.72;;
51618;SDS011;38518;53.164;5.430;2023-05-14T08:55:25;11.45;;;4.57;;
51618;SDS011;38518;53.164;5.430;2023-05-14T08:57:52;10.98;;;4.50;;
51618;SDS011;38518;53.164;5.430;2023-05-14T09:00:21;11.90;;;4.45;;
51618;SDS011;38518;53.164;5.430;2023-05-14T09:02:47;7.10;;;4.22;;
51618;SDS011;38518;53.164;5.430;2023-05-14T09:05:13;8.10;;;3.85;;
51618;SDS011;38518;53.164;5.430;2023-05-14T09:07:41;7.25;;;3.60;;
51618;SDS011;38518;53.164;5.430;2023-05-14T09:10:07;10.88;;;4.68;;
51618;SDS011;38518;53.164;5.430;2023-05-14T09:12:33;10.73;;;4.28;;
51618;SDS011;38518;53.164;5.430;2023-05-14T09:14:59;12.75;;;4.15;;
51618;SDS011;38518;53.164;5.430;2023-05-14T09:17:25;8.43;;;3.85;;
51618;SDS011;38518;53.164;5.430;2023-05-14T09:19:51;8.88;;;4.25;;
51618;SDS011;38518;53.164;5.430;2023-05-14T09:22:19;10.70;;;4.05;;
51618;SDS011;38518;53.164;5.430;2023-05-14T09:24:49;7.93;;;3.97;;
51618;SDS011;38518;53.164;5.430;2023-05-14T09:27:32;10.32;;;4.20;;
51618;SDS011;38518;53.164;5.430;2023-05-14T09:30:04;10.43;;;4.18;;
51618;SDS011;38518;53.164;5.430;2023-05-14T09:32:41;7.18;;;3.67;;
51618;SDS011;38518;53.164;5.430;2023-05-14T09:35:26;12.50;;;4.63;;
51618;SDS011;38518;53.164;5.430;2023-05-14T09:37:55;7.72;;;4.13;;
51618;SDS011;38518;53.164;5.430;2023-05-14T09:41:01;9.27;;;4.20;;
51618;SDS011;38518;53.164;5.430;2023-05-14T09:43:27;9.90;;;3.90;;
51618;SDS011;38518;53.164;5.430;2023-05-14T09:46:03;10.15;;;3.70;;
51618;SDS011;38518;53.164;5.430;2023-05-14T09:48:28;7.65;;;3.88;;
51618;SDS011;38518;53.164;5.430;2023-05-14T09:50:54;9.27;;;4.30;;
51618;SDS011;38518;53.164;5.430;2023-05-14T09:53:20;8.50;;;4.05;;
51618;SDS011;38518;53.164;5.430;2023-05-14T09:55:46;9.30;;;4.72;;
51618;SDS011;38518;53.164;5.430;2023-05-14T09:58:13;9.82;;;4.35;;
51618;SDS011;38518;53.164;5.430;2023-05-14T10:00:40;8.18;;;4.95;;
51618;SDS011;38518;53.164;5.430;2023-05-14T10:03:08;10.57;;;4.15;;
51618;SDS011;38518;53.164;5.430;2023-05-14T10:05:39;11.75;;;4.47;;
51618;SDS011;38518;53.164;5.430;2023-05-14T10:08:13;8.00;;;4.30;;
51618;SDS011;38518;53.164;5.430;2023-05-14T10:10:46;9.27;;;4.72;;
51618;SDS011;38518;53.164;5.430;2023-05-14T10:13:16;9.55;;;4.20;;
51618;SDS011;38518;53.164;5.430;2023-05-14T10:16:12;8.88;;;4.50;;
51618;SDS011;38518;53.164;5.430;2023-05-14T10:18:45;10.68;;;4.43;;
51618;SDS011;38518;53.164;5.430;2023-05-14T10:21:15;9.73;;;4.28;;
51618;SDS011;38518;53.164;5.430;2023-05-14T10:23:46;12.18;;;4.55;;
51618;SDS011;38518;53.164;5.430;2023-05-14T10:26:17;8.00;;;4.47;;
51618;SDS011;38518;53.164;5.430;2023-05-14T10:28:42;10.43;;;4.70;;
51618;SDS011;38518;53.164;5.430;2023-05-14T10:31:09;9.35;;;4.95;;
51618;SDS011;38518;53.164;5.430;2023-05-14T10:33:47;8.25;;;5.25;;
51618;SDS011;38518;53.164;5.430;2023-05-14T10:36:15;9.02;;;5.20;;
51618;SDS011;38518;53.164;5.430;2023-05-14T10:38:42;10.82;;;5.10;;
51618;SDS011;38518;53.164;5.430;2023-05-14T10:41:14;17.00;;;6.20;;
51618;SDS011;38518;53.164;5.430;2023-05-14T10:43:44;9.55;;;4.97;;
51618;SDS011;38518;53.164;5.430;2023-05-14T10:46:11;11.40;;;5.05;;
51618;SDS011;38518;53.164;5.430;2023-05-14T10:48:41;8.93;;;5.13;;
51618;SDS011;38518;53.164;5.430;2023-05-14T10:51:07;7.55;;;5.03;;
51618;SDS011;38518;53.164;5.430;2023-05-14T10:53:38;9.80;;;5.20;;
51618;SDS011;38518;53.164;5.430;2023-05-14T10:56:10;9.40;;;4.93;;
51618;SDS011;38518;53.164;5.430;2023-05-14T10:58:38;9.20;;;5.10;;
51618;SDS011;38518;53.164;5.430;2023-05-14T11:01:06;10.93;;;5.10;;
51618;SDS011;38518;53.164;5.430;2023-05-14T11:03:37;10.65;;;5.05;;
51618;SDS011;38518;53.164;5.430;2023-05-14T11:06:05;11.93;;;5.65;;
51618;SDS011;38518;53.164;5.430;2023-05-14T11:08:32;10.73;;;5.82;;
51618;SDS011;38518;53.164;5.430;2023-05-14T11:10:58;8.43;;;5.10;;
51618;SDS011;38518;53.164;5.430;2023-05-14T11:13:27;10.52;;;6.10;;
51618;SDS011;38518;53.164;5.430;2023-05-14T11:15:53;11.63;;;7.55;;
51618;SDS011;38518;53.164;5.430;2023-05-14T11:18:30;10.00;;;6.20;;
51618;SDS011;38518;53.164;5.430;2023-05-14T11:21:03;11.18;;;7.25;;
51618;SDS011;38518;53.164;5.430;2023-05-14T11:23:28;9.93;;;6.32;;
51618;SDS011;38518;53.164;5.430;2023-05-14T11:25:55;10.50;;;7.22;;
51618;SDS011;38518;53.164;5.430;2023-05-14T11:28:24;8.85;;;6.60;;
51618;SDS011;38518;53.164;5.430;2023-05-14T11:30:51;11.63;;;6.90;;
51618;SDS011;38518;53.164;5.430;2023-05-14T11:33:22;9.70;;;6.07;;
51618;SDS011;38518;53.164;5.430;2023-05-14T11:35:48;13.15;;;7.50;;
51618;SDS011;38518;53.164;5.430;2023-05-14T11:38:17;9.90;;;6.88;;
51618;SDS011;38518;53.164;5.430;2023-05-14T11:40:55;9.00;;;6.60;;
51618;SDS011;38518;53.164;5.430;2023-05-14T11:43:23;12.90;;;7.50;;
51618;SDS011;38518;53.164;5.430;2023-05-14T11:45:53;10.40;;;7.25;;
51618;SDS011;38518;53.164;5.430;2023-05-14T11:48:20;13.65;;;7.05;;
51618;SDS011;38518;53.164;5.430;2023-05-14T11:50:47;12.45;;;7.90;;
51618;SDS011;38518;53.164;5.430;2023-05-14T11:53:18;10.60;;;7.47;;
51618;SDS011;38518;53.164;5.430;2023-05-14T11:55:45;9.38;;;7.20;;
51618;SDS011;38518;53.164;5.430;2023-05-14T11:58:11;10.13;;;6.65;;
51618;SDS011;38518;53.164;5.430;2023-05-14T12:00:38;11.40;;;6.93;;
51618;SDS011;38518;53.164;5.430;2023-05-14T12:03:04;9.07;;;5.82;;
51618;SDS011;38518;53.164;5.430;2023-05-14T12:05:30;12.30;;;6.30;;
51618;SDS011;38518;53.164;5.430;2023-05-14T12:07:56;10.55;;;5.70;;
51618;SDS011;38518;53.164;5.430;2023-05-14T12:10:22;11.35;;;6.50;;
51618;SDS011;38518;53.164;5.430;2023-05-14T12:12:50;10.43;;;5.68;;
51618;SDS011;38518;53.164;5.430;2023-05-14T12:15:19;9.57;;;6.32;;
51618;SDS011;38518;53.164;5.430;2023-05-14T12:17:49;11.15;;;6.70;;
51618;SDS011;38518;53.164;5.430;2023-05-14T12:20:15;11.23;;;7.05;;
51618;SDS011;38518;53.164;5.430;2023-05-14T12:22:42;10.75;;;7.35;;
51618;SDS011;38518;53.164;5.430;2023-05-14T12:25:11;8.38;;;6.53;;
51618;SDS011;38518;53.164;5.430;2023-05-14T12:27:37;10.68;;;7.85;;
51618;SDS011;38518;53.164;5.430;2023-05-14T12:30:04;10.48;;;7.53;;
51618;SDS011;38518;53.164;5.430;2023-05-14T12:32:31;10.27;;;7.00;;
51618;SDS011;38518;53.164;5.430;2023-05-14T12:34:58;13.93;;;7.95;;
51618;SDS011;38518;53.164;5.430;2023-05-14T12:37:25;10.38;;;7.35;;
51618;SDS011;38518;53.164;5.430;2023-05-14T12:39:51;11.00;;;7.35;;
51618;SDS011;38518;53.164;5.430;2023-05-14T12:42:17;8.43;;;7.53;;
51618;SDS011;38518;53.164;5.430;2023-05-14T12:44:43;11.75;;;7.72;;
51618;SDS011;38518;53.164;5.430;2023-05-14T12:47:08;10.50;;;7.50;;
51618;SDS011;38518;53.164;5.430;2023-05-14T12:49:35;9.38;;;7.80;;
51618;SDS011;38518;53.164;5.430;2023-05-14T12:52:01;11.07;;;8.70;;
51618;SDS011;38518;53.164;5.430;2023-05-14T12:54:27;9.00;;;8.07;;
51618;SDS011;38518;53.164;5.430;2023-05-14T12:56:53;9.43;;;8.38;;
51618;SDS011;38518;53.164;5.430;2023-05-14T12:59:19;11.50;;;9.40;;
51618;SDS011;38518;53.164;5.430;2023-05-14T13:01:45;10.70;;;8.15;;
51618;SDS011;38518;53.164;5.430;2023-05-14T13:04:10;12.23;;;8.48;;
51618;SDS011;38518;53.164;5.430;2023-05-14T13:06:39;14.07;;;9.10;;
51618;SDS011;38518;53.164;5.430;2023-05-14T13:09:06;15.98;;;9.43;;
51618;SDS011;38518;53.164;5.430;2023-05-14T13:11:33;14.52;;;9.85;;
51618;SDS011;38518;53.164;5.430;2023-05-14T13:13:59;12.48;;;7.80;;
51618;SDS011;38518;53.164;5.430;2023-05-14T13:16:26;9.38;;;7.85;;
51618;SDS011;38518;53.164;5.430;2023-05-14T13:18:52;10.32;;;7.78;;
51618;SDS011;38518;53.164;5.430;2023-05-14T13:21:21;13.02;;;7.90;;
51618;SDS011;38518;53.164;5.430;2023-05-14T13:23:47;12.52;;;8.25;;
51618;SDS011;38518;53.164;5.430;2023-05-14T13:26:16;9.85;;;7.53;;
51618;SDS011;38518;53.164;5.430;2023-05-14T13:28:48;14.68;;;8.07;;
51618;SDS011;38518;53.164;5.430;2023-05-14T13:31:14;10.95;;;8.05;;
51618;SDS011;38518;53.164;5.430;2023-05-14T13:33:41;9.55;;;7.43;;
51618;SDS011;38518;53.164;5.430;2023-05-14T13:36:09;14.30;;;8.07;;
51618;SDS011;38518;53.164;5.430;2023-05-14T13:38:36;9.05;;;8.02;;
51618;SDS011;38518;53.164;5.430;2023-05-14T13:41:02;9.98;;;7.78;;
51618;SDS011;38518;53.164;5.430;2023-05-14T13:43:31;11.13;;;7.22;;
51618;SDS011;38518;53.164;5.430;2023-05-14T13:45:58;11.07;;;8.18;;
51618;SDS011;38518;53.164;5.430;2023-05-14T13:48:25;10.63;;;7.50;;
51618;SDS011;38518;53.164;5.430;2023-05-14T13:50:51;11.45;;;7.93;;
51618;SDS011;38518;53.164;5.430;2023-05-14T13:53:18;7.57;;;6.78;;
51618;SDS011;38518;53.164;5.430;2023-05-14T13:55:44;11.60;;;7.15;;
51618;SDS011;38518;53.164;5.430;2023-05-14T13:58:10;10.82;;;7.32;;
51618;SDS011;38518;53.164;5.430;2023-05-14T14:00:36;8.55;;;7.10;;
51618;SDS011;38518;53.164;5.430;2023-05-14T14:03:02;10.32;;;6.55;;
51618;SDS011;38518;53.164;5.430;2023-05-14T14:05:28;9.32;;;6.97;;
51618;SDS011;38518;53.164;5.430;2023-05-14T14:07:55;12.57;;;7.45;;
51618;SDS011;38518;53.164;5.430;2023-05-14T14:10:21;10.07;;;7.30;;
51618;SDS011;38518;53.164;5.430;2023-05-14T14:12:47;11.35;;;8.40;;
51618;SDS011;38518;53.164;5.430;2023-05-14T14:15:13;8.25;;;6.72;;
51618;SDS011;38518;53.164;5.430;2023-05-14T14:17:39;10.20;;;7.13;;
51618;SDS011;38518;53.164;5.430;2023-05-14T14:20:08;8.00;;;6.63;;
51618;SDS011;38518;53.164;5.430;2023-05-14T14:22:35;10.02;;;5.93;;
51618;SDS011;38518;53.164;5.430;2023-05-14T14:25:01;9.27;;;6.00;;
51618;SDS011;38518;53.164;5.430;2023-05-14T14:27:27;10.43;;;7.07;;
51618;SDS011;38518;53.164;5.430;2023-05-14T14:29:58;9.55;;;7.20;;
51618;SDS011;38518;53.164;5.430;2023-05-14T14:32:23;7.80;;;6.80;;
51618;SDS011;38518;53.164;5.430;2023-05-14T14:34:49;10.63;;;7.25;;